![]() |
EMODnet Physics ERDDAP
Easier access to scientific data |
log in|
Brought to you by EMODnet Physics |
| Dataset Title: | NDBC - Collection of dew point temperature (DEWT) TimeSeries - IN SITU MultiPointTimeSeriesObservation
|
| Institution: | NDBC (Dataset ID: TS_DEWT_NDBC) |
| Information: | Summary
| License
| FGDC
| ISO 19115
| Metadata
| Background
| Subset
| Data Access Form
| Make a graph
|
| Name | Last modified | Size | Description | |
|---|---|---|---|---|
| Parent Directory | - | - | ||
| 46120_TS_DEWT_012016.nc | 01-Jan-2025 07:38 | 1627427 | ||
| 46120_TS_DEWT_012017.nc | 01-Jan-2025 07:40 | 1625887 | ||
| 46120_TS_DEWT_012018.nc | 01-Jan-2025 07:43 | 1627393 | ||
| 46120_TS_DEWT_012019.nc | 01-Jan-2025 07:45 | 1464985 | ||
| 46120_TS_DEWT_012020.nc | 01-Jan-2025 07:48 | 1627322 | ||
| 46120_TS_DEWT_012023.nc | 01-Jan-2025 07:54 | 1627805 | ||
| 46120_TS_DEWT_012026.nc | 03-Feb-2026 05:50 | 1153337 | ||
| 46120_TS_DEWT_022016.nc | 01-Jan-2025 07:38 | 428997 | ||
| 46120_TS_DEWT_022017.nc | 01-Jan-2025 07:41 | 1473957 | ||
| 46120_TS_DEWT_022018.nc | 01-Jan-2025 07:43 | 1470731 | ||
| 46120_TS_DEWT_022019.nc | 01-Jan-2025 07:45 | 1465323 | ||
| 46120_TS_DEWT_022020.nc | 01-Jan-2025 07:48 | 1470519 | ||
| 46120_TS_DEWT_022026.nc | 01-Mar-2026 08:16 | 1474398 | ||
| 46120_TS_DEWT_032016.nc | 01-Jan-2025 07:39 | 1470825 | ||
| 46120_TS_DEWT_032017.nc | 01-Jan-2025 07:41 | 1468396 | ||
| 46120_TS_DEWT_032018.nc | 01-Jan-2025 07:43 | 1470784 | ||
| 46120_TS_DEWT_032019.nc | 01-Jan-2025 07:45 | 1474348 | ||
| 46120_TS_DEWT_032020.nc | 01-Jan-2025 07:49 | 1469728 | ||
| 46120_TS_DEWT_032023.nc | 01-Jan-2025 07:54 | 1470847 | ||
| 46120_TS_DEWT_032026.nc | 26-Mar-2026 09:38 | 1470497 | ||
| 46120_TS_DEWT_042016.nc | 01-Jan-2025 07:39 | 1473859 | ||
| 46120_TS_DEWT_042018.nc | 01-Jan-2025 07:44 | 1150382 | ||
| 46120_TS_DEWT_042019.nc | 01-Jan-2025 07:46 | 1470505 | ||
| 46120_TS_DEWT_042020.nc | 01-Jan-2025 07:49 | 1470119 | ||
| 46120_TS_DEWT_042022.nc | 01-Jan-2025 07:52 | 420849 | ||
| 46120_TS_DEWT_042023.nc | 01-Jan-2025 07:54 | 428882 | ||
| 46120_TS_DEWT_052016.nc | 01-Jan-2025 07:39 | 1478263 | ||
| 46120_TS_DEWT_052017.nc | 01-Jan-2025 07:41 | 1627469 | ||
| 46120_TS_DEWT_052018.nc | 01-Jan-2025 07:44 | 1466504 | ||
| 46120_TS_DEWT_052019.nc | 01-Jan-2025 07:46 | 1625203 | ||
| 46120_TS_DEWT_052020.nc | 01-Jan-2025 07:49 | 1627783 | ||
| 46120_TS_DEWT_052022.nc | 01-Jan-2025 07:52 | 1627324 | ||
| 46120_TS_DEWT_052023.nc | 01-Jan-2025 07:54 | 1472519 | ||
| 46120_TS_DEWT_052025.nc | 17-Jan-2026 13:57 | 1468469 | ||
| 46120_TS_DEWT_062016.nc | 01-Jan-2025 07:39 | 1626419 | ||
| 46120_TS_DEWT_062017.nc | 01-Jan-2025 07:41 | 1626081 | ||
| 46120_TS_DEWT_062018.nc | 01-Jan-2025 07:44 | 1627705 | ||
| 46120_TS_DEWT_062019.nc | 01-Jan-2025 07:46 | 1627538 | ||
| 46120_TS_DEWT_062020.nc | 01-Jan-2025 07:50 | 1627394 | ||
| 46120_TS_DEWT_062022.nc | 01-Jan-2025 07:52 | 1160033 | ||
| 46120_TS_DEWT_062023.nc | 01-Jan-2025 07:55 | 1627436 | ||
| 46120_TS_DEWT_062025.nc | 17-Jan-2026 13:57 | 1627605 | ||
| 46120_TS_DEWT_072016.nc | 01-Jan-2025 07:39 | 431142 | ||
| 46120_TS_DEWT_072019.nc | 01-Jan-2025 07:47 | 601523 | ||
| 46120_TS_DEWT_072020.nc | 01-Jan-2025 07:50 | 1473945 | ||
| 46120_TS_DEWT_072022.nc | 01-Jan-2025 07:52 | 1466788 | ||
| 46120_TS_DEWT_072023.nc | 01-Jan-2025 07:55 | 1477822 | ||
| 46120_TS_DEWT_072025.nc | 17-Jan-2026 13:58 | 1477290 | ||
| 46120_TS_DEWT_082016.nc | 01-Jan-2025 07:39 | 1473910 | ||
| 46120_TS_DEWT_082017.nc | 01-Jan-2025 07:42 | 1477971 | ||
| 46120_TS_DEWT_082019.nc | 01-Jan-2025 07:47 | 1477310 | ||
| 46120_TS_DEWT_082020.nc | 01-Jan-2025 07:50 | 1476216 | ||
| 46120_TS_DEWT_082022.nc | 01-Jan-2025 07:53 | 1476796 | ||
| 46120_TS_DEWT_082023.nc | 01-Jan-2025 07:55 | 1477732 | ||
| 46120_TS_DEWT_082025.nc | 17-Jan-2026 13:58 | 1477977 | ||
| 46120_TS_DEWT_092016.nc | 01-Jan-2025 07:40 | 1477744 | ||
| 46120_TS_DEWT_092017.nc | 01-Jan-2025 07:42 | 1477696 | ||
| 46120_TS_DEWT_092018.nc | 01-Jan-2025 07:44 | 1477777 | ||
| 46120_TS_DEWT_092019.nc | 01-Jan-2025 07:47 | 1476618 | ||
| 46120_TS_DEWT_092020.nc | 01-Jan-2025 07:50 | 430482 | ||
| 46120_TS_DEWT_092022.nc | 01-Jan-2025 07:53 | 1627356 | ||
| 46120_TS_DEWT_092023.nc | 01-Jan-2025 07:55 | 1146245 | ||
| 46120_TS_DEWT_092025.nc | 17-Jan-2026 13:59 | 1627818 | ||
| 46120_TS_DEWT_102016.nc | 01-Jan-2025 07:40 | 1627833 | ||
| 46120_TS_DEWT_102017.nc | 01-Jan-2025 07:42 | 1476497 | ||
| 46120_TS_DEWT_102019.nc | 01-Jan-2025 07:47 | 1627807 | ||
| 46120_TS_DEWT_102020.nc | 01-Jan-2025 07:51 | 1627295 | ||
| 46120_TS_DEWT_102022.nc | 01-Jan-2025 07:53 | 1459600 | ||
| 46120_TS_DEWT_102023.nc | 01-Jan-2025 07:55 | 1627667 | ||
| 46120_TS_DEWT_102025.nc | 17-Jan-2026 13:59 | 1627499 | ||
| 46120_TS_DEWT_112016.nc | 01-Jan-2025 07:40 | 1627630 | ||
| 46120_TS_DEWT_112017.nc | 01-Jan-2025 07:42 | 1627599 | ||
| 46120_TS_DEWT_112018.nc | 01-Jan-2025 07:45 | 1625189 | ||
| 46120_TS_DEWT_112019.nc | 01-Jan-2025 07:48 | 1627460 | ||
| 46120_TS_DEWT_112020.nc | 01-Jan-2025 07:51 | 1627616 | ||
| 46120_TS_DEWT_112021.nc | 01-Jan-2025 07:51 | 427342 | ||
| 46120_TS_DEWT_112022.nc | 01-Jan-2025 07:53 | 1461990 | ||
| 46120_TS_DEWT_112025.nc | 17-Jan-2026 14:00 | 1161593 | ||
| 46120_TS_DEWT_122016.nc | 01-Jan-2025 07:40 | 1476640 | ||
| 46120_TS_DEWT_122017.nc | 01-Jan-2025 07:43 | 906569 | ||
| 46120_TS_DEWT_122018.nc | 01-Jan-2025 07:45 | 1476792 | ||
| 46120_TS_DEWT_122019.nc | 01-Jan-2025 07:48 | 1467541 | ||
| 46120_TS_DEWT_122021.nc | 01-Jan-2025 07:51 | 1477578 | ||
| 46120_TS_DEWT_122022.nc | 01-Jan-2025 07:53 | 1477924 | ||
| 46120_TS_DEWT_122025.nc | 17-Jan-2026 14:00 | 1476979 | ||